createdAt,value
2022-12-28T00:01:15.102Z,5.20
2022-12-28T00:03:44.825Z,5.07
2022-12-28T00:06:13.227Z,4.40
2022-12-28T00:08:41.641Z,4.70
2022-12-28T00:11:18.682Z,3.90
2022-12-28T00:13:52.599Z,3.67
2022-12-28T00:16:22.854Z,4.80
2022-12-28T00:18:52.562Z,3.03
2022-12-28T00:21:20.820Z,3.27
2022-12-28T00:23:50.493Z,3.10
2022-12-28T00:26:18.773Z,3.17
2022-12-28T00:28:47.060Z,2.60
2022-12-28T00:31:15.379Z,3.00
2022-12-28T00:33:43.740Z,3.10
2022-12-28T00:36:14.146Z,2.23
2022-12-28T00:38:42.438Z,2.27
2022-12-28T00:41:10.956Z,2.53
2022-12-28T00:43:39.258Z,2.23
2022-12-28T00:46:07.695Z,2.03
2022-12-28T00:48:36.038Z,1.97
2022-12-28T00:51:04.682Z,2.03
2022-12-28T00:53:34.355Z,1.70
2022-12-28T00:56:06.307Z,1.67
2022-12-28T00:58:34.601Z,2.17
2022-12-28T01:01:02.991Z,1.63
2022-12-28T01:03:31.417Z,1.73
2022-12-28T01:05:59.745Z,1.27
2022-12-28T01:08:28.144Z,1.70
2022-12-28T01:10:57.835Z,1.10
2022-12-28T01:13:26.120Z,1.43
2022-12-28T01:15:54.393Z,0.83
2022-12-28T01:18:22.733Z,1.10
2022-12-28T01:20:51.027Z,1.50
2022-12-28T01:23:19.291Z,1.07
2022-12-28T01:25:47.639Z,1.03
2022-12-28T01:28:17.265Z,1.13
2022-12-28T01:30:45.603Z,1.20
2022-12-28T01:33:13.904Z,0.77
2022-12-28T01:35:42.146Z,1.00
2022-12-28T01:38:10.472Z,1.37
2022-12-28T01:40:38.798Z,1.17
2022-12-28T01:43:08.915Z,0.90
2022-12-28T01:45:38.598Z,0.87
2022-12-28T01:48:07.093Z,0.90
2022-12-28T01:50:35.384Z,0.90
2022-12-28T01:53:04.274Z,0.70
2022-12-28T01:55:32.847Z,1.00
2022-12-28T01:58:01.933Z,0.87
2022-12-28T02:00:30.266Z,1.00
2022-12-28T02:03:00.639Z,0.93
2022-12-28T02:05:29.465Z,0.60
2022-12-28T02:07:59.216Z,1.63
2022-12-28T02:10:42.617Z,1.10
2022-12-28T02:13:13.851Z,0.87
2022-12-28T02:15:42.196Z,0.80
2022-12-28T02:18:11.841Z,1.00
2022-12-28T02:20:42.187Z,0.80
2022-12-28T02:23:25.835Z,1.00
2022-12-28T02:26:03.988Z,0.90
2022-12-28T02:28:50.927Z,1.17
2022-12-28T02:31:20.925Z,1.10
2022-12-28T02:33:51.401Z,0.90
2022-12-28T02:36:20.029Z,1.10
2022-12-28T02:38:49.181Z,0.80
2022-12-28T02:41:18.057Z,1.10
2022-12-28T02:43:46.402Z,1.03
2022-12-28T02:46:31.698Z,1.00
2022-12-28T02:49:30.242Z,0.50
2022-12-28T02:52:00.468Z,0.73
2022-12-28T02:54:54.588Z,0.70
2022-12-28T02:57:26.088Z,0.80
2022-12-28T02:59:59.876Z,0.63
2022-12-28T03:03:01.351Z,0.77
2022-12-28T03:05:52.450Z,0.57
2022-12-28T03:08:21.290Z,0.80
2022-12-28T03:10:51.821Z,0.97
2022-12-28T03:13:38.117Z,0.90
2022-12-28T03:16:08.476Z,0.40
2022-12-28T03:18:54.781Z,0.97
2022-12-28T03:21:41.837Z,0.87
2022-12-28T03:24:28.026Z,0.80
2022-12-28T03:27:13.876Z,0.83
2022-12-28T03:30:00.009Z,0.60
2022-12-28T03:32:28.294Z,0.40
2022-12-28T03:34:56.565Z,0.60
2022-12-28T03:37:26.740Z,0.63
2022-12-28T03:39:55.282Z,0.67
2022-12-28T03:42:42.795Z,0.40
2022-12-28T03:45:11.913Z,0.60
2022-12-28T03:47:40.351Z,0.70
2022-12-28T03:50:08.949Z,0.70
2022-12-28T03:52:38.590Z,0.50
2022-12-28T03:55:07.189Z,0.70
2022-12-28T03:57:35.520Z,0.40
2022-12-28T04:00:03.821Z,0.80
2022-12-28T04:02:32.258Z,0.73
2022-12-28T04:05:00.716Z,0.60
2022-12-28T04:07:29.562Z,0.40
2022-12-28T04:09:59.227Z,0.70
2022-12-28T04:12:27.588Z,0.70
2022-12-28T04:14:55.880Z,0.70
2022-12-28T04:17:24.161Z,0.60
2022-12-28T04:19:52.481Z,0.60
2022-12-28T04:22:20.760Z,0.50
2022-12-28T04:24:49.047Z,0.53
2022-12-28T04:27:18.711Z,0.50
2022-12-28T04:29:46.983Z,0.90
2022-12-28T04:32:15.275Z,0.70
2022-12-28T04:34:48.415Z,0.60
2022-12-28T04:37:17.290Z,0.50
2022-12-28T04:39:55.639Z,0.80
2022-12-28T04:42:26.726Z,0.90
2022-12-28T04:44:55.015Z,0.70
2022-12-28T04:47:23.252Z,0.60
2022-12-28T04:49:51.582Z,0.60
2022-12-28T04:52:19.887Z,0.60
2022-12-28T04:54:48.200Z,1.07
2022-12-28T04:57:16.483Z,0.50
2022-12-28T04:59:46.159Z,0.40
2022-12-28T05:02:14.500Z,0.50
2022-12-28T05:04:42.833Z,0.83
2022-12-28T05:07:11.170Z,0.57
2022-12-28T05:09:39.470Z,0.60
2022-12-28T05:12:07.866Z,0.40
2022-12-28T05:14:37.322Z,0.60
2022-12-28T05:17:07.352Z,0.33
2022-12-28T05:19:35.682Z,0.50
2022-12-28T05:22:03.958Z,0.53
2022-12-28T05:24:32.297Z,0.50
2022-12-28T05:27:01.642Z,0.50
2022-12-28T05:29:29.979Z,0.30
2022-12-28T05:31:58.303Z,0.50
2022-12-28T05:34:27.947Z,0.60
2022-12-28T05:36:56.271Z,0.60
2022-12-28T05:39:24.589Z,0.47
2022-12-28T05:41:52.888Z,0.80
2022-12-28T05:44:21.213Z,0.50
2022-12-28T05:46:49.659Z,0.43
2022-12-28T05:49:18.166Z,0.30
2022-12-28T05:51:47.818Z,0.50
2022-12-28T05:54:16.123Z,0.40
2022-12-28T05:56:44.419Z,0.50
2022-12-28T05:59:13.372Z,0.50
2022-12-28T06:01:42.159Z,0.30
2022-12-28T06:04:10.877Z,0.67
2022-12-28T06:06:39.195Z,0.60
2022-12-28T06:09:08.837Z,0.57
2022-12-28T06:11:37.109Z,0.40
2022-12-28T06:14:06.073Z,0.57
2022-12-28T06:16:35.025Z,0.30
2022-12-28T06:19:05.319Z,0.40
2022-12-28T06:21:34.158Z,0.50
2022-12-28T06:24:02.945Z,0.40
2022-12-28T06:26:32.936Z,0.37
2022-12-28T06:29:01.913Z,0.40
2022-12-28T06:31:30.670Z,0.70
2022-12-28T06:33:59.411Z,0.40
2022-12-28T06:36:28.040Z,0.50
2022-12-28T06:38:56.729Z,0.50
2022-12-28T06:41:25.198Z,0.50
2022-12-28T06:43:54.906Z,0.40
2022-12-28T06:46:23.928Z,0.60
2022-12-28T06:48:52.333Z,0.40
2022-12-28T06:51:20.985Z,0.47
2022-12-28T06:53:49.519Z,0.50
2022-12-28T06:56:18.160Z,0.30
2022-12-28T06:58:46.667Z,0.57
2022-12-28T07:01:17.238Z,0.37
2022-12-28T07:03:45.780Z,0.50
2022-12-28T07:06:14.165Z,0.40
2022-12-28T07:08:42.610Z,0.47
2022-12-28T07:11:11.379Z,0.63
2022-12-28T07:13:39.951Z,0.40
2022-12-28T07:16:09.029Z,0.40
2022-12-28T07:18:38.797Z,0.50
2022-12-28T07:21:07.984Z,0.40
2022-12-28T07:23:36.440Z,0.30
2022-12-28T07:26:06.045Z,0.63
2022-12-28T07:28:34.339Z,0.43
2022-12-28T07:31:06.988Z,0.40
2022-12-28T07:33:35.761Z,0.40
2022-12-28T07:36:05.651Z,0.70
2022-12-28T07:38:34.110Z,0.53
2022-12-28T07:41:03.361Z,0.30
2022-12-28T07:43:31.740Z,0.40
2022-12-28T07:46:03.704Z,0.40
2022-12-28T07:48:32.856Z,0.30
2022-12-28T07:51:08.182Z,0.30
2022-12-28T07:53:36.519Z,0.40
2022-12-28T07:56:04.946Z,0.37
2022-12-28T07:58:33.422Z,0.40
2022-12-28T08:01:05.898Z,0.40
2022-12-28T08:03:34.778Z,0.40
2022-12-28T08:06:11.133Z,0.47
2022-12-28T08:08:39.621Z,0.30
2022-12-28T08:11:08.227Z,0.30
2022-12-28T08:13:36.904Z,0.50
2022-12-28T08:16:05.714Z,0.37
2022-12-28T08:18:34.045Z,0.37
2022-12-28T08:21:02.885Z,0.30
2022-12-28T08:23:32.893Z,0.50
2022-12-28T08:26:06.643Z,0.50
2022-12-28T08:28:35.245Z,0.60
2022-12-28T08:31:06.796Z,0.50
2022-12-28T08:33:35.295Z,0.37
2022-12-28T08:36:03.760Z,0.20
2022-12-28T08:38:33.481Z,0.50
2022-12-28T08:41:02.579Z,0.30
2022-12-28T08:43:31.013Z,0.23
2022-12-28T08:46:00.120Z,0.30
2022-12-28T08:48:28.637Z,0.40
2022-12-28T08:50:57.177Z,0.30
2022-12-28T08:53:25.484Z,0.40
2022-12-28T08:55:55.155Z,0.40
2022-12-28T08:58:23.461Z,0.30
2022-12-28T09:00:51.754Z,0.60
2022-12-28T09:03:20.242Z,0.33
2022-12-28T09:05:52.704Z,0.40
2022-12-28T09:08:23.050Z,0.23
2022-12-28T09:10:51.318Z,0.30
2022-12-28T09:13:21.015Z,0.40
2022-12-28T09:15:57.456Z,0.30
2022-12-28T09:18:25.780Z,0.30
2022-12-28T09:20:54.086Z,0.37
2022-12-28T09:23:22.525Z,0.30
2022-12-28T09:25:50.851Z,0.30
2022-12-28T09:28:19.118Z,0.20
2022-12-28T09:30:48.843Z,0.50
2022-12-28T09:33:46.115Z,0.20
2022-12-28T09:36:22.956Z,0.40
2022-12-28T09:38:51.402Z,0.40
2022-12-28T09:41:22.984Z,0.20
2022-12-28T09:43:51.519Z,0.40
2022-12-28T09:46:21.376Z,0.40
2022-12-28T09:48:50.748Z,0.40
2022-12-28T09:51:19.042Z,0.60
2022-12-28T09:53:47.365Z,0.30
2022-12-28T09:56:20.629Z,0.47
2022-12-28T09:58:49.643Z,0.50
2022-12-28T10:01:18.255Z,0.40
2022-12-28T10:03:48.130Z,0.47
2022-12-28T10:06:16.795Z,0.40
2022-12-28T10:08:46.188Z,0.20
2022-12-28T10:11:15.434Z,0.30
2022-12-28T10:13:58.908Z,0.30
2022-12-28T10:16:28.216Z,0.40
2022-12-28T10:18:57.923Z,0.40
2022-12-28T10:21:32.461Z,0.13
2022-12-28T10:26:49.799Z,0.43
2022-12-28T10:29:19.865Z,0.30
2022-12-28T10:31:58.110Z,0.20
2022-12-28T10:34:33.501Z,0.47
2022-12-28T10:37:05.877Z,0.57
2022-12-28T10:39:34.769Z,0.40
2022-12-28T10:42:03.767Z,0.30
2022-12-28T10:44:40.708Z,0.30
2022-12-28T10:47:17.458Z,0.30
2022-12-28T10:50:18.498Z,0.60
2022-12-28T10:52:39.374Z,0.40
2022-12-28T10:55:19.958Z,0.30
2022-12-28T10:58:19.115Z,0.70
2022-12-28T11:00:36.909Z,0.60
2022-12-28T11:03:10.555Z,0.70
2022-12-28T11:05:40.355Z,0.30
2022-12-28T11:08:08.671Z,0.50
2022-12-28T11:10:37.858Z,0.63
2022-12-28T11:13:07.536Z,0.40
2022-12-28T11:15:35.856Z,0.43
2022-12-28T11:18:09.208Z,0.50
2022-12-28T11:20:38.352Z,0.60
2022-12-28T11:23:08.070Z,0.30
2022-12-28T11:25:36.574Z,0.30
2022-12-28T11:28:07.130Z,0.47
2022-12-28T11:30:35.437Z,0.40
2022-12-28T11:33:04.945Z,0.53
2022-12-28T11:35:33.972Z,0.40
2022-12-28T11:38:02.934Z,0.30
2022-12-28T11:40:49.341Z,0.53
2022-12-28T11:43:39.871Z,0.40
2022-12-28T11:46:09.989Z,0.57
2022-12-28T11:48:56.329Z,0.40
2022-12-28T11:51:24.838Z,0.60
2022-12-28T11:53:54.469Z,0.30
2022-12-28T11:56:23.366Z,0.40
2022-12-28T11:59:07.677Z,1.23
2022-12-28T12:01:44.516Z,0.40
2022-12-28T12:04:20.097Z,0.37
2022-12-28T12:07:07.103Z,0.40
2022-12-28T12:09:43.652Z,0.47
2022-12-28T12:12:30.595Z,0.70
2022-12-28T12:14:59.340Z,0.40
2022-12-28T12:17:31.555Z,0.57
2022-12-28T12:20:00.770Z,0.30
2022-12-28T12:22:30.332Z,0.40
2022-12-28T12:24:59.694Z,0.60
2022-12-28T12:27:32.383Z,0.33
2022-12-28T12:30:01.941Z,0.60
2022-12-28T12:32:32.846Z,0.33
2022-12-28T12:35:02.116Z,0.60
2022-12-28T12:37:37.546Z,0.40
2022-12-28T12:40:12.344Z,0.57
2022-12-28T12:42:42.563Z,0.40
2022-12-28T12:45:15.272Z,0.50
2022-12-28T12:47:52.380Z,0.43
2022-12-28T12:50:22.522Z,0.63
2022-12-28T12:52:55.263Z,0.30
2022-12-28T12:55:25.349Z,0.50
2022-12-28T12:57:57.969Z,0.40
2022-12-28T13:00:26.560Z,0.47
2022-12-28T13:03:12.779Z,0.50
2022-12-28T13:05:43.863Z,0.33
2022-12-28T13:08:16.033Z,0.60
2022-12-28T13:10:45.295Z,1.03
2022-12-28T13:13:17.278Z,0.43
2022-12-28T13:15:45.736Z,0.43
2022-12-28T13:18:43.989Z,0.50
2022-12-28T13:21:12.509Z,0.30
2022-12-28T13:23:44.188Z,0.67
2022-12-28T13:26:12.685Z,0.90
2022-12-28T13:28:40.969Z,0.40
2022-12-28T13:31:10.972Z,0.37
2022-12-28T13:33:39.345Z,0.57
2022-12-28T13:36:14.524Z,0.60
2022-12-28T13:38:43.342Z,0.53
2022-12-28T13:41:18.673Z,0.50
2022-12-28T13:43:53.004Z,0.50
2022-12-28T13:46:21.347Z,0.50
2022-12-28T13:48:52.369Z,0.40
2022-12-28T13:51:22.007Z,0.90
2022-12-28T13:53:51.323Z,0.60
2022-12-28T13:56:19.857Z,0.60
2022-12-28T13:58:52.060Z,0.40
2022-12-28T14:01:21.900Z,0.70
2022-12-28T14:03:50.484Z,0.60
2022-12-28T14:06:19.335Z,0.47
2022-12-28T14:08:49.305Z,0.40
2022-12-28T14:11:17.725Z,0.50
2022-12-28T14:13:46.044Z,0.30
2022-12-28T14:16:14.656Z,0.33
2022-12-28T14:18:42.966Z,0.60
2022-12-28T14:21:11.276Z,0.30
2022-12-28T14:23:40.002Z,0.33
2022-12-28T14:26:09.974Z,0.47
2022-12-28T14:28:38.644Z,0.40
2022-12-28T14:31:07.534Z,0.47
2022-12-28T14:33:36.637Z,0.60
2022-12-28T14:36:05.595Z,0.47
2022-12-28T14:38:34.572Z,0.50
2022-12-28T14:41:03.154Z,0.50
2022-12-28T14:43:32.936Z,0.30
2022-12-28T14:46:17.038Z,1.00
2022-12-28T14:48:45.633Z,0.57
2022-12-28T14:51:27.293Z,0.20
2022-12-28T14:54:14.556Z,0.60
2022-12-28T14:56:43.170Z,0.43
2022-12-28T14:59:17.623Z,0.50
2022-12-28T15:01:47.145Z,0.40
2022-12-28T15:04:26.669Z,0.77
2022-12-28T15:06:55.274Z,0.77
2022-12-28T15:09:23.577Z,0.50
2022-12-28T15:11:51.881Z,0.67
2022-12-28T15:14:22.117Z,0.50
2022-12-28T15:16:50.429Z,0.63
2022-12-28T15:19:18.903Z,0.87
2022-12-28T15:21:47.349Z,0.70
2022-12-28T15:24:18.057Z,1.00
2022-12-28T15:26:49.545Z,1.27
2022-12-28T15:29:32.208Z,1.10
2022-12-28T15:32:07.949Z,1.17
2022-12-28T15:34:36.276Z,0.80
2022-12-28T15:37:04.536Z,1.23
2022-12-28T15:39:33.141Z,0.83
2022-12-28T15:42:01.425Z,0.80
2022-12-28T15:44:29.705Z,0.80
2022-12-28T15:46:58.298Z,1.27
2022-12-28T15:49:28.081Z,0.80
2022-12-28T15:51:56.399Z,0.80
2022-12-28T15:54:24.867Z,0.53
2022-12-28T15:56:53.412Z,0.90
2022-12-28T15:59:21.724Z,0.90
2022-12-28T16:01:50.440Z,1.17
2022-12-28T16:04:18.898Z,0.63
2022-12-28T16:06:48.585Z,0.77
2022-12-28T16:09:16.985Z,0.70
2022-12-28T16:11:48.840Z,0.83
2022-12-28T16:14:21.585Z,1.27
2022-12-28T16:16:49.914Z,1.10
2022-12-28T16:19:18.276Z,1.10
2022-12-28T16:21:46.845Z,0.87
2022-12-28T16:24:16.524Z,0.90
2022-12-28T16:26:45.062Z,1.27
2022-12-28T16:29:13.486Z,1.13
2022-12-28T16:31:41.989Z,1.03
2022-12-28T16:34:11.758Z,1.03
2022-12-28T16:36:40.258Z,0.80
2022-12-28T16:39:09.145Z,0.80
2022-12-28T16:41:38.869Z,1.00
2022-12-28T16:44:07.782Z,1.00
2022-12-28T16:46:36.337Z,1.07
2022-12-28T16:49:05.626Z,0.90
2022-12-28T16:51:34.061Z,1.47
2022-12-28T16:54:02.376Z,0.93
2022-12-28T16:56:30.665Z,0.90
2022-12-28T16:59:00.619Z,0.97
2022-12-28T17:01:28.991Z,0.90
2022-12-28T17:04:03.420Z,0.90
2022-12-28T17:06:32.841Z,1.47
2022-12-28T17:09:02.595Z,1.43
2022-12-28T17:11:30.882Z,0.70
2022-12-28T17:14:02.864Z,0.87
2022-12-28T17:16:31.324Z,0.90
2022-12-28T17:18:59.783Z,0.73
2022-12-28T17:21:28.197Z,0.90
2022-12-28T17:23:56.532Z,0.80
2022-12-28T17:26:24.869Z,1.10
2022-12-28T17:28:53.512Z,1.17
2022-12-28T17:31:23.649Z,1.13
2022-12-28T17:33:54.021Z,1.67
2022-12-28T17:36:22.354Z,1.20
2022-12-28T17:38:50.688Z,1.20
2022-12-28T17:41:19.529Z,0.80
2022-12-28T17:43:48.344Z,0.87
2022-12-28T17:46:16.666Z,1.23
2022-12-28T17:48:46.432Z,1.20
2022-12-28T17:51:14.830Z,1.00
2022-12-28T17:53:43.205Z,1.20
2022-12-28T17:56:12.244Z,1.00
2022-12-28T17:58:40.641Z,1.27
2022-12-28T18:01:09.104Z,1.03
2022-12-28T18:03:37.703Z,0.80
2022-12-28T18:06:07.717Z,0.80
2022-12-28T18:08:36.024Z,1.10
2022-12-28T18:11:04.341Z,1.20
2022-12-28T18:13:32.635Z,1.17
2022-12-28T18:16:00.949Z,1.13
2022-12-28T18:18:29.591Z,1.00
2022-12-28T18:20:58.493Z,1.07
2022-12-28T18:23:28.763Z,0.70
2022-12-28T18:26:02.672Z,1.20
2022-12-28T18:28:31.046Z,1.17
2022-12-28T18:31:02.152Z,1.13
2022-12-28T18:33:31.099Z,1.27
2022-12-28T18:35:59.515Z,0.87
2022-12-28T18:38:29.185Z,0.87
2022-12-28T18:40:58.157Z,0.80
2022-12-28T18:43:26.525Z,0.70
2022-12-28T18:45:54.888Z,1.00
2022-12-28T18:48:23.708Z,0.90
2022-12-28T18:50:55.463Z,1.00
2022-12-28T18:53:24.136Z,1.27
2022-12-28T18:55:58.972Z,0.80
2022-12-28T18:58:27.834Z,1.30
2022-12-28T19:00:56.150Z,1.00
2022-12-28T19:03:24.551Z,0.93
2022-12-28T19:06:02.587Z,0.90
2022-12-28T19:08:31.591Z,0.83
2022-12-28T19:11:01.419Z,0.83
2022-12-28T19:13:29.691Z,1.10
2022-12-28T19:15:58.045Z,0.80
2022-12-28T19:18:26.678Z,1.27
2022-12-28T19:20:57.768Z,0.90
2022-12-28T19:23:26.330Z,0.70
2022-12-28T19:25:59.523Z,0.60
2022-12-28T19:28:32.647Z,0.60
2022-12-28T19:31:04.865Z,0.70
2022-12-28T19:33:33.705Z,1.30
2022-12-28T19:36:02.023Z,0.90
2022-12-28T19:38:30.318Z,0.83
2022-12-28T19:40:58.657Z,1.30
2022-12-28T19:43:26.995Z,0.93
2022-12-28T19:46:02.562Z,1.40
2022-12-28T19:48:30.917Z,1.00
2022-12-28T19:50:59.338Z,1.53
2022-12-28T19:53:28.649Z,0.77
2022-12-28T19:55:59.726Z,1.20
2022-12-28T19:58:27.995Z,1.17
2022-12-28T20:00:57.975Z,0.70
2022-12-28T20:03:26.340Z,1.17
2022-12-28T20:05:54.668Z,0.97
2022-12-28T20:08:23.139Z,0.90
2022-12-28T20:10:56.595Z,1.30
2022-12-28T20:13:25.040Z,1.20
2022-12-28T20:15:53.436Z,1.23
2022-12-28T20:18:23.103Z,1.00
2022-12-28T20:21:19.167Z,1.40
2022-12-28T20:23:39.825Z,0.90
2022-12-28T20:26:08.279Z,1.00
2022-12-28T20:28:36.559Z,1.43
2022-12-28T20:31:05.326Z,1.10
2022-12-28T20:33:35.549Z,1.40
2022-12-28T20:36:04.382Z,1.40
2022-12-28T20:38:32.759Z,0.87
2022-12-28T20:41:04.912Z,1.20
2022-12-28T20:43:32.194Z,1.33
2022-12-28T20:46:00.586Z,0.60
2022-12-28T20:48:28.897Z,1.23
2022-12-28T20:50:58.723Z,1.00
2022-12-28T20:53:27.031Z,1.20
2022-12-28T20:55:55.335Z,0.87
2022-12-28T20:58:23.656Z,0.87
2022-12-28T21:00:52.027Z,1.30
2022-12-28T21:03:20.506Z,1.10
2022-12-28T21:05:48.791Z,1.30
2022-12-28T21:08:18.479Z,1.10
2022-12-28T21:10:48.333Z,0.90
2022-12-28T21:13:16.608Z,1.37
2022-12-28T21:15:44.882Z,0.87
2022-12-28T21:18:13.377Z,0.97
2022-12-28T21:20:47.044Z,0.77
2022-12-28T21:23:15.464Z,0.83
2022-12-28T21:25:45.168Z,0.97
2022-12-28T21:28:13.500Z,1.10
2022-12-28T21:30:41.841Z,0.90
2022-12-28T21:33:10.208Z,1.63
2022-12-28T21:35:38.500Z,0.70
2022-12-28T21:38:07.235Z,1.10
2022-12-28T21:40:35.565Z,1.00
2022-12-28T21:43:05.186Z,1.20
2022-12-28T21:45:33.684Z,1.20
2022-12-28T21:48:02.495Z,0.93
2022-12-28T21:50:30.851Z,1.37
2022-12-28T21:52:59.443Z,0.83
2022-12-28T21:55:46.458Z,1.53
2022-12-28T21:58:16.273Z,0.70
2022-12-28T22:01:02.080Z,0.87
2022-12-28T22:03:48.137Z,1.33
2022-12-28T22:06:16.416Z,0.80
2022-12-28T22:09:02.568Z,1.60
2022-12-28T22:11:48.449Z,1.30
2022-12-28T22:14:18.231Z,0.97
2022-12-28T22:16:46.602Z,1.43
2022-12-28T22:19:14.965Z,1.07
2022-12-28T22:21:44.132Z,1.50
2022-12-28T22:24:12.480Z,1.40
2022-12-28T22:26:40.747Z,1.30
2022-12-28T22:29:09.057Z,1.20
2022-12-28T22:31:40.511Z,1.00
2022-12-28T22:34:08.839Z,1.00
2022-12-28T22:36:37.290Z,1.07
2022-12-28T22:39:05.629Z,1.17
2022-12-28T22:41:33.940Z,1.47
2022-12-28T22:44:02.373Z,1.40
2022-12-28T22:46:30.739Z,1.17
2022-12-28T22:49:00.460Z,1.40
2022-12-28T22:51:29.070Z,1.73
2022-12-28T22:53:57.395Z,1.10
2022-12-28T22:56:25.674Z,1.10
2022-12-28T22:58:54.299Z,1.30
2022-12-28T23:01:22.707Z,1.00
2022-12-28T23:03:51.714Z,1.30
2022-12-28T23:06:21.695Z,0.90
2022-12-28T23:08:50.047Z,1.07
2022-12-28T23:11:36.216Z,1.03
2022-12-28T23:14:18.633Z,1.10
2022-12-28T23:16:46.994Z,1.17
2022-12-28T23:19:33.026Z,1.07
2022-12-28T23:22:20.410Z,0.90
2022-12-28T23:25:06.389Z,1.20
2022-12-28T23:27:35.625Z,1.00
2022-12-28T23:30:04.054Z,0.57
2022-12-28T23:32:32.360Z,1.23
2022-12-28T23:35:01.067Z,0.80
2022-12-28T23:37:30.762Z,1.10
2022-12-28T23:39:59.051Z,0.87
2022-12-28T23:42:27.518Z,1.20
2022-12-28T23:44:55.813Z,0.80
2022-12-28T23:47:24.174Z,1.30
2022-12-28T23:49:52.561Z,0.70
2022-12-28T23:52:25.604Z,0.80
2022-12-28T23:54:55.813Z,0.80
2022-12-28T23:57:24.139Z,1.17
2022-12-28T23:59:52.423Z,1.20
